sensor_id;sensor_type;location;lat;lon;timestamp;P1;durP1;ratioP1;P2;durP2;ratioP2
37937;SDS011;23763;48.130;11.602;2024-01-07T00:01:35;13.60;;;12.50;;
37937;SDS011;23763;48.130;11.602;2024-01-07T00:04:00;12.80;;;11.70;;
37937;SDS011;23763;48.130;11.602;2024-01-07T00:06:26;13.23;;;12.13;;
37937;SDS011;23763;48.130;11.602;2024-01-07T00:08:52;13.40;;;12.20;;
37937;SDS011;23763;48.130;11.602;2024-01-07T00:11:17;13.70;;;12.50;;
37937;SDS011;23763;48.130;11.602;2024-01-07T00:13:43;13.60;;;12.37;;
37937;SDS011;23763;48.130;11.602;2024-01-07T00:16:08;13.13;;;12.10;;
37937;SDS011;23763;48.130;11.602;2024-01-07T00:18:34;13.20;;;12.17;;
37937;SDS011;23763;48.130;11.602;2024-01-07T00:21:00;13.90;;;12.70;;
37937;SDS011;23763;48.130;11.602;2024-01-07T00:23:25;13.67;;;12.57;;
37937;SDS011;23763;48.130;11.602;2024-01-07T00:25:51;13.40;;;12.20;;
37937;SDS011;23763;48.130;11.602;2024-01-07T00:28:16;13.10;;;12.00;;
37937;SDS011;23763;48.130;11.602;2024-01-07T00:30:42;13.57;;;12.53;;
37937;SDS011;23763;48.130;11.602;2024-01-07T00:33:07;13.40;;;12.30;;
37937;SDS011;23763;48.130;11.602;2024-01-07T00:35:33;13.70;;;12.60;;
37937;SDS011;23763;48.130;11.602;2024-01-07T00:37:59;12.70;;;11.70;;
37937;SDS011;23763;48.130;11.602;2024-01-07T00:40:24;13.37;;;12.27;;
37937;SDS011;23763;48.130;11.602;2024-01-07T00:42:50;13.40;;;12.10;;
37937;SDS011;23763;48.130;11.602;2024-01-07T00:45:16;12.33;;;11.43;;
37937;SDS011;23763;48.130;11.602;2024-01-07T00:47:43;13.57;;;12.40;;
37937;SDS011;23763;48.130;11.602;2024-01-07T00:50:08;14.33;;;13.03;;
37937;SDS011;23763;48.130;11.602;2024-01-07T00:52:34;13.00;;;12.00;;
37937;SDS011;23763;48.130;11.602;2024-01-07T00:55:02;12.70;;;11.67;;
37937;SDS011;23763;48.130;11.602;2024-01-07T00:57:31;13.23;;;12.03;;
37937;SDS011;23763;48.130;11.602;2024-01-07T00:59:58;13.70;;;12.50;;
37937;SDS011;23763;48.130;11.602;2024-01-07T01:02:25;13.10;;;12.10;;
37937;SDS011;23763;48.130;11.602;2024-01-07T01:04:50;12.43;;;11.43;;
37937;SDS011;23763;48.130;11.602;2024-01-07T01:07:16;12.87;;;11.83;;
37937;SDS011;23763;48.130;11.602;2024-01-07T01:09:41;12.03;;;11.00;;
37937;SDS011;23763;48.130;11.602;2024-01-07T01:12:07;12.17;;;11.27;;
37937;SDS011;23763;48.130;11.602;2024-01-07T01:14:33;12.03;;;11.13;;
37937;SDS011;23763;48.130;11.602;2024-01-07T01:16:58;13.10;;;12.03;;
37937;SDS011;23763;48.130;11.602;2024-01-07T01:19:24;12.27;;;11.27;;
37937;SDS011;23763;48.130;11.602;2024-01-07T01:21:50;13.37;;;12.30;;
37937;SDS011;23763;48.130;11.602;2024-01-07T01:24:15;12.60;;;11.70;;
37937;SDS011;23763;48.130;11.602;2024-01-07T01:26:41;12.10;;;11.17;;
37937;SDS011;23763;48.130;11.602;2024-01-07T01:29:07;12.37;;;11.47;;
37937;SDS011;23763;48.130;11.602;2024-01-07T01:31:32;12.50;;;11.60;;
37937;SDS011;23763;48.130;11.602;2024-01-07T01:33:58;12.90;;;11.90;;
37937;SDS011;23763;48.130;11.602;2024-01-07T01:36:24;12.37;;;11.37;;
37937;SDS011;23763;48.130;11.602;2024-01-07T01:38:50;12.90;;;11.97;;
37937;SDS011;23763;48.130;11.602;2024-01-07T01:41:16;14.10;;;13.00;;
37937;SDS011;23763;48.130;11.602;2024-01-07T01:43:41;12.37;;;11.47;;
37937;SDS011;23763;48.130;11.602;2024-01-07T01:46:08;12.17;;;11.27;;
37937;SDS011;23763;48.130;11.602;2024-01-07T01:48:35;12.30;;;11.33;;
37937;SDS011;23763;48.130;11.602;2024-01-07T01:51:01;12.63;;;11.67;;
37937;SDS011;23763;48.130;11.602;2024-01-07T01:53:27;13.37;;;12.37;;
37937;SDS011;23763;48.130;11.602;2024-01-07T01:55:55;12.30;;;11.40;;
37937;SDS011;23763;48.130;11.602;2024-01-07T01:58:22;11.47;;;10.67;;
37937;SDS011;23763;48.130;11.602;2024-01-07T02:00:49;12.23;;;11.40;;
37937;SDS011;23763;48.130;11.602;2024-01-07T02:03:16;12.03;;;11.23;;
37937;SDS011;23763;48.130;11.602;2024-01-07T02:05:42;12.13;;;11.30;;
37937;SDS011;23763;48.130;11.602;2024-01-07T02:08:08;12.57;;;11.67;;
37937;SDS011;23763;48.130;11.602;2024-01-07T02:10:35;11.40;;;10.60;;
37937;SDS011;23763;48.130;11.602;2024-01-07T02:13:02;12.10;;;11.30;;
37937;SDS011;23763;48.130;11.602;2024-01-07T02:15:28;11.30;;;10.60;;
37937;SDS011;23763;48.130;11.602;2024-01-07T02:17:54;11.80;;;11.00;;
37937;SDS011;23763;48.130;11.602;2024-01-07T02:20:20;11.17;;;10.40;;
37937;SDS011;23763;48.130;11.602;2024-01-07T02:22:46;11.43;;;10.63;;
37937;SDS011;23763;48.130;11.602;2024-01-07T02:25:11;11.00;;;10.30;;
37937;SDS011;23763;48.130;11.602;2024-01-07T02:27:37;12.20;;;11.23;;
37937;SDS011;23763;48.130;11.602;2024-01-07T02:30:02;11.40;;;10.60;;
37937;SDS011;23763;48.130;11.602;2024-01-07T02:32:28;11.67;;;10.87;;
37937;SDS011;23763;48.130;11.602;2024-01-07T02:34:57;12.27;;;11.30;;
37937;SDS011;23763;48.130;11.602;2024-01-07T02:37:23;10.93;;;10.13;;
37937;SDS011;23763;48.130;11.602;2024-01-07T02:39:48;11.03;;;10.23;;
37937;SDS011;23763;48.130;11.602;2024-01-07T02:42:14;10.90;;;10.20;;
37937;SDS011;23763;48.130;11.602;2024-01-07T02:44:39;12.07;;;11.27;;
37937;SDS011;23763;48.130;11.602;2024-01-07T02:47:05;11.60;;;10.80;;
37937;SDS011;23763;48.130;11.602;2024-01-07T02:49:31;11.43;;;10.60;;
37937;SDS011;23763;48.130;11.602;2024-01-07T02:51:56;11.83;;;10.93;;
37937;SDS011;23763;48.130;11.602;2024-01-07T02:54:22;11.40;;;10.60;;
37937;SDS011;23763;48.130;11.602;2024-01-07T02:56:47;10.73;;;10.03;;
37937;SDS011;23763;48.130;11.602;2024-01-07T02:59:13;10.97;;;10.27;;
37937;SDS011;23763;48.130;11.602;2024-01-07T03:01:38;12.00;;;11.13;;
37937;SDS011;23763;48.130;11.602;2024-01-07T03:04:10;11.03;;;10.33;;
37937;SDS011;23763;48.130;11.602;2024-01-07T03:06:37;10.73;;;10.03;;
37937;SDS011;23763;48.130;11.602;2024-01-07T03:09:03;10.63;;;10.03;;
37937;SDS011;23763;48.130;11.602;2024-01-07T03:11:28;11.13;;;10.43;;
37937;SDS011;23763;48.130;11.602;2024-01-07T03:13:54;11.20;;;10.50;;
37937;SDS011;23763;48.130;11.602;2024-01-07T03:16:21;11.23;;;10.43;;
37937;SDS011;23763;48.130;11.602;2024-01-07T03:18:48;10.73;;;10.03;;
37937;SDS011;23763;48.130;11.602;2024-01-07T03:21:20;11.00;;;10.30;;
37937;SDS011;23763;48.130;11.602;2024-01-07T03:23:47;10.93;;;10.13;;
37937;SDS011;23763;48.130;11.602;2024-01-07T03:26:14;11.17;;;10.47;;
37937;SDS011;23763;48.130;11.602;2024-01-07T03:28:40;11.03;;;10.33;;
37937;SDS011;23763;48.130;11.602;2024-01-07T03:31:10;10.70;;;10.10;;
37937;SDS011;23763;48.130;11.602;2024-01-07T03:33:41;11.10;;;10.30;;
37937;SDS011;23763;48.130;11.602;2024-01-07T03:38:34;10.07;;;9.47;;
37937;SDS011;23763;48.130;11.602;2024-01-07T03:41:00;11.20;;;10.50;;
37937;SDS011;23763;48.130;11.602;2024-01-07T03:43:26;11.20;;;10.50;;
37937;SDS011;23763;48.130;11.602;2024-01-07T03:45:51;11.33;;;10.60;;
37937;SDS011;23763;48.130;11.602;2024-01-07T03:48:17;11.03;;;10.37;;
37937;SDS011;23763;48.130;11.602;2024-01-07T03:50:42;11.10;;;10.30;;
37937;SDS011;23763;48.130;11.602;2024-01-07T03:53:08;11.13;;;10.43;;
37937;SDS011;23763;48.130;11.602;2024-01-07T03:55:34;10.57;;;9.97;;
37937;SDS011;23763;48.130;11.602;2024-01-07T03:58:00;11.63;;;10.73;;
37937;SDS011;23763;48.130;11.602;2024-01-07T04:00:25;11.23;;;10.43;;
37937;SDS011;23763;48.130;11.602;2024-01-07T04:02:51;11.83;;;11.03;;
37937;SDS011;23763;48.130;11.602;2024-01-07T04:05:16;11.40;;;10.63;;
37937;SDS011;23763;48.130;11.602;2024-01-07T04:07:42;10.90;;;10.10;;
37937;SDS011;23763;48.130;11.602;2024-01-07T04:10:08;11.37;;;10.60;;
37937;SDS011;23763;48.130;11.602;2024-01-07T04:12:34;12.00;;;11.20;;
37937;SDS011;23763;48.130;11.602;2024-01-07T04:14:59;10.63;;;9.93;;
37937;SDS011;23763;48.130;11.602;2024-01-07T04:17:25;11.73;;;10.93;;
37937;SDS011;23763;48.130;11.602;2024-01-07T04:19:52;11.97;;;11.07;;
37937;SDS011;23763;48.130;11.602;2024-01-07T04:22:18;11.33;;;10.60;;
37937;SDS011;23763;48.130;11.602;2024-01-07T04:24:43;12.13;;;11.23;;
37937;SDS011;23763;48.130;11.602;2024-01-07T04:27:09;12.10;;;11.20;;
37937;SDS011;23763;48.130;11.602;2024-01-07T04:29:35;11.90;;;11.10;;
37937;SDS011;23763;48.130;11.602;2024-01-07T04:32:01;10.83;;;10.20;;
37937;SDS011;23763;48.130;11.602;2024-01-07T04:34:26;11.10;;;10.40;;
37937;SDS011;23763;48.130;11.602;2024-01-07T04:36:52;11.30;;;10.43;;
37937;SDS011;23763;48.130;11.602;2024-01-07T04:39:18;11.53;;;10.73;;
37937;SDS011;23763;48.130;11.602;2024-01-07T04:41:43;10.73;;;10.00;;
37937;SDS011;23763;48.130;11.602;2024-01-07T04:44:09;11.20;;;10.43;;
37937;SDS011;23763;48.130;11.602;2024-01-07T04:46:37;10.43;;;9.80;;
37937;SDS011;23763;48.130;11.602;2024-01-07T04:49:03;11.50;;;10.50;;
37937;SDS011;23763;48.130;11.602;2024-01-07T04:51:30;10.47;;;9.67;;
37937;SDS011;23763;48.130;11.602;2024-01-07T04:53:56;11.23;;;10.43;;
37937;SDS011;23763;48.130;11.602;2024-01-07T04:56:22;10.80;;;10.10;;
37937;SDS011;23763;48.130;11.602;2024-01-07T04:58:48;10.60;;;9.90;;
37937;SDS011;23763;48.130;11.602;2024-01-07T05:01:13;11.23;;;10.37;;
37937;SDS011;23763;48.130;11.602;2024-01-07T05:03:39;10.97;;;10.17;;
37937;SDS011;23763;48.130;11.602;2024-01-07T05:06:07;10.50;;;9.80;;
37937;SDS011;23763;48.130;11.602;2024-01-07T05:08:33;10.43;;;9.73;;
37937;SDS011;23763;48.130;11.602;2024-01-07T05:10:59;11.20;;;10.40;;
37937;SDS011;23763;48.130;11.602;2024-01-07T05:13:24;10.90;;;10.10;;
37937;SDS011;23763;48.130;11.602;2024-01-07T05:15:50;10.83;;;10.03;;
37937;SDS011;23763;48.130;11.602;2024-01-07T05:18:22;10.60;;;9.90;;
37937;SDS011;23763;48.130;11.602;2024-01-07T05:20:49;10.60;;;9.90;;
37937;SDS011;23763;48.130;11.602;2024-01-07T05:23:15;11.33;;;10.63;;
37937;SDS011;23763;48.130;11.602;2024-01-07T05:25:44;10.57;;;9.77;;
37937;SDS011;23763;48.130;11.602;2024-01-07T05:28:11;10.97;;;10.27;;
37937;SDS011;23763;48.130;11.602;2024-01-07T05:30:37;11.03;;;10.23;;
37937;SDS011;23763;48.130;11.602;2024-01-07T05:33:03;10.50;;;9.80;;
37937;SDS011;23763;48.130;11.602;2024-01-07T05:35:29;11.30;;;10.50;;
37937;SDS011;23763;48.130;11.602;2024-01-07T05:37:55;11.47;;;10.63;;
37937;SDS011;23763;48.130;11.602;2024-01-07T05:40:21;10.77;;;9.97;;
37937;SDS011;23763;48.130;11.602;2024-01-07T05:42:47;10.90;;;10.20;;
37937;SDS011;23763;48.130;11.602;2024-01-07T05:45:13;11.40;;;10.60;;
37937;SDS011;23763;48.130;11.602;2024-01-07T05:47:39;11.20;;;10.50;;
37937;SDS011;23763;48.130;11.602;2024-01-07T05:50:06;11.20;;;10.33;;
37937;SDS011;23763;48.130;11.602;2024-01-07T05:52:32;11.10;;;10.30;;
37937;SDS011;23763;48.130;11.602;2024-01-07T05:54:58;11.10;;;10.40;;
37937;SDS011;23763;48.130;11.602;2024-01-07T05:57:23;11.40;;;10.60;;
37937;SDS011;23763;48.130;11.602;2024-01-07T05:59:49;10.97;;;10.10;;
37937;SDS011;23763;48.130;11.602;2024-01-07T06:02:17;11.13;;;10.33;;
37937;SDS011;23763;48.130;11.602;2024-01-07T06:04:43;10.40;;;9.80;;
37937;SDS011;23763;48.130;11.602;2024-01-07T06:07:09;11.97;;;11.07;;
37937;SDS011;23763;48.130;11.602;2024-01-07T06:09:34;11.63;;;10.83;;
37937;SDS011;23763;48.130;11.602;2024-01-07T06:12:00;10.67;;;9.97;;
37937;SDS011;23763;48.130;11.602;2024-01-07T06:14:26;10.80;;;10.10;;
37937;SDS011;23763;48.130;11.602;2024-01-07T06:16:52;10.97;;;10.17;;
37937;SDS011;23763;48.130;11.602;2024-01-07T06:19:17;11.67;;;10.87;;
37937;SDS011;23763;48.130;11.602;2024-01-07T06:21:43;11.63;;;10.73;;
37937;SDS011;23763;48.130;11.602;2024-01-07T06:24:10;11.83;;;10.93;;
37937;SDS011;23763;48.130;11.602;2024-01-07T06:26:36;10.83;;;10.13;;
37937;SDS011;23763;48.130;11.602;2024-01-07T06:29:02;11.10;;;10.40;;
37937;SDS011;23763;48.130;11.602;2024-01-07T06:31:27;11.90;;;11.10;;
37937;SDS011;23763;48.130;11.602;2024-01-07T06:33:53;11.53;;;10.77;;
37937;SDS011;23763;48.130;11.602;2024-01-07T06:36:22;11.47;;;10.67;;
37937;SDS011;23763;48.130;11.602;2024-01-07T06:38:49;11.40;;;10.70;;
37937;SDS011;23763;48.130;11.602;2024-01-07T06:41:14;10.93;;;10.17;;
37937;SDS011;23763;48.130;11.602;2024-01-07T06:43:40;11.27;;;10.33;;
37937;SDS011;23763;48.130;11.602;2024-01-07T06:46:06;11.10;;;10.33;;
37937;SDS011;23763;48.130;11.602;2024-01-07T06:48:32;11.43;;;10.67;;
37937;SDS011;23763;48.130;11.602;2024-01-07T06:50:57;11.00;;;10.27;;
37937;SDS011;23763;48.130;11.602;2024-01-07T06:53:23;11.37;;;10.57;;
37937;SDS011;23763;48.130;11.602;2024-01-07T06:55:49;11.57;;;10.60;;
37937;SDS011;23763;48.130;11.602;2024-01-07T06:58:14;11.03;;;10.33;;
37937;SDS011;23763;48.130;11.602;2024-01-07T07:00:40;10.47;;;9.77;;
37937;SDS011;23763;48.130;11.602;2024-01-07T07:03:06;11.37;;;10.57;;
37937;SDS011;23763;48.130;11.602;2024-01-07T07:05:32;11.20;;;10.40;;
37937;SDS011;23763;48.130;11.602;2024-01-07T07:07:57;10.60;;;9.80;;
37937;SDS011;23763;48.130;11.602;2024-01-07T07:10:23;11.70;;;10.80;;
37937;SDS011;23763;48.130;11.602;2024-01-07T07:12:49;11.30;;;10.60;;
37937;SDS011;23763;48.130;11.602;2024-01-07T07:15:18;10.53;;;9.80;;
37937;SDS011;23763;48.130;11.602;2024-01-07T07:17:43;11.33;;;10.43;;
37937;SDS011;23763;48.130;11.602;2024-01-07T07:20:09;10.90;;;10.10;;
37937;SDS011;23763;48.130;11.602;2024-01-07T07:22:36;11.70;;;10.80;;
37937;SDS011;23763;48.130;11.602;2024-01-07T07:25:01;11.67;;;10.80;;
37937;SDS011;23763;48.130;11.602;2024-01-07T07:27:27;11.27;;;10.47;;
37937;SDS011;23763;48.130;11.602;2024-01-07T07:29:53;11.87;;;11.07;;
37937;SDS011;23763;48.130;11.602;2024-01-07T07:32:18;11.17;;;10.47;;
37937;SDS011;23763;48.130;11.602;2024-01-07T07:34:44;10.87;;;10.07;;
37937;SDS011;23763;48.130;11.602;2024-01-07T07:37:10;10.57;;;9.70;;
37937;SDS011;23763;48.130;11.602;2024-01-07T07:39:36;10.70;;;9.90;;
37937;SDS011;23763;48.130;11.602;2024-01-07T07:42:02;10.33;;;9.63;;
37937;SDS011;23763;48.130;11.602;2024-01-07T07:44:28;11.37;;;10.47;;
37937;SDS011;23763;48.130;11.602;2024-01-07T07:46:53;11.10;;;10.30;;
37937;SDS011;23763;48.130;11.602;2024-01-07T07:49:19;10.13;;;9.53;;
37937;SDS011;23763;48.130;11.602;2024-01-07T07:51:45;10.73;;;10.03;;
37937;SDS011;23763;48.130;11.602;2024-01-07T07:54:11;11.70;;;10.80;;
37937;SDS011;23763;48.130;11.602;2024-01-07T07:56:36;11.10;;;10.27;;
37937;SDS011;23763;48.130;11.602;2024-01-07T07:59:02;10.73;;;9.93;;
37937;SDS011;23763;48.130;11.602;2024-01-07T08:01:28;10.63;;;9.83;;
37937;SDS011;23763;48.130;11.602;2024-01-07T08:03:54;11.40;;;10.50;;
37937;SDS011;23763;48.130;11.602;2024-01-07T08:06:20;11.40;;;10.40;;
37937;SDS011;23763;48.130;11.602;2024-01-07T08:08:46;11.37;;;10.47;;
37937;SDS011;23763;48.130;11.602;2024-01-07T08:11:12;11.83;;;10.93;;
37937;SDS011;23763;48.130;11.602;2024-01-07T08:13:38;11.30;;;10.40;;
37937;SDS011;23763;48.130;11.602;2024-01-07T08:16:04;10.87;;;10.17;;
37937;SDS011;23763;48.130;11.602;2024-01-07T08:18:31;11.10;;;10.40;;
37937;SDS011;23763;48.130;11.602;2024-01-07T08:20:57;11.27;;;10.47;;
37937;SDS011;23763;48.130;11.602;2024-01-07T08:23:26;10.47;;;9.77;;
37937;SDS011;23763;48.130;11.602;2024-01-07T08:25:52;11.77;;;10.97;;
37937;SDS011;23763;48.130;11.602;2024-01-07T08:28:18;11.57;;;10.77;;
37937;SDS011;23763;48.130;11.602;2024-01-07T08:30:43;11.73;;;10.80;;
37937;SDS011;23763;48.130;11.602;2024-01-07T08:33:09;12.17;;;11.07;;
37937;SDS011;23763;48.130;11.602;2024-01-07T08:35:36;11.20;;;10.37;;
37937;SDS011;23763;48.130;11.602;2024-01-07T08:38:02;12.27;;;11.33;;
37937;SDS011;23763;48.130;11.602;2024-01-07T08:40:28;12.30;;;11.40;;
37937;SDS011;23763;48.130;11.602;2024-01-07T08:42:54;11.87;;;11.00;;
37937;SDS011;23763;48.130;11.602;2024-01-07T08:45:20;12.60;;;11.60;;
37937;SDS011;23763;48.130;11.602;2024-01-07T08:47:46;12.10;;;11.20;;
37937;SDS011;23763;48.130;11.602;2024-01-07T08:50:12;12.13;;;11.23;;
37937;SDS011;23763;48.130;11.602;2024-01-07T08:52:38;11.67;;;10.77;;
37937;SDS011;23763;48.130;11.602;2024-01-07T08:55:03;12.03;;;11.13;;
37937;SDS011;23763;48.130;11.602;2024-01-07T08:57:31;12.30;;;11.30;;
37937;SDS011;23763;48.130;11.602;2024-01-07T08:59:57;12.80;;;11.80;;
37937;SDS011;23763;48.130;11.602;2024-01-07T09:02:23;12.70;;;11.67;;
37937;SDS011;23763;48.130;11.602;2024-01-07T09:04:49;11.97;;;11.07;;
37937;SDS011;23763;48.130;11.602;2024-01-07T09:07:14;12.00;;;11.00;;
37937;SDS011;23763;48.130;11.602;2024-01-07T09:09:41;11.77;;;10.77;;
37937;SDS011;23763;48.130;11.602;2024-01-07T09:12:07;11.43;;;10.53;;
37937;SDS011;23763;48.130;11.602;2024-01-07T09:14:33;12.23;;;11.33;;
37937;SDS011;23763;48.130;11.602;2024-01-07T09:16:58;11.80;;;10.97;;
37937;SDS011;23763;48.130;11.602;2024-01-07T09:19:24;11.87;;;10.97;;
37937;SDS011;23763;48.130;11.602;2024-01-07T09:21:51;11.80;;;10.83;;
37937;SDS011;23763;48.130;11.602;2024-01-07T09:24:17;11.90;;;10.90;;
37937;SDS011;23763;48.130;11.602;2024-01-07T09:26:43;11.30;;;10.40;;
37937;SDS011;23763;48.130;11.602;2024-01-07T09:29:09;12.40;;;11.40;;
37937;SDS011;23763;48.130;11.602;2024-01-07T09:31:35;12.13;;;11.23;;
37937;SDS011;23763;48.130;11.602;2024-01-07T09:34:01;13.77;;;12.47;;
37937;SDS011;23763;48.130;11.602;2024-01-07T09:36:27;12.47;;;11.47;;
37937;SDS011;23763;48.130;11.602;2024-01-07T09:38:52;12.23;;;11.23;;
37937;SDS011;23763;48.130;11.602;2024-01-07T09:41:18;12.70;;;11.70;;
37937;SDS011;23763;48.130;11.602;2024-01-07T09:43:44;13.60;;;12.33;;
37937;SDS011;23763;48.130;11.602;2024-01-07T09:46:10;12.77;;;11.67;;
37937;SDS011;23763;48.130;11.602;2024-01-07T09:48:35;14.33;;;13.03;;
37937;SDS011;23763;48.130;11.602;2024-01-07T09:51:01;14.20;;;12.90;;
37937;SDS011;23763;48.130;11.602;2024-01-07T09:53:30;14.43;;;13.13;;
37937;SDS011;23763;48.130;11.602;2024-01-07T09:58:50;14.47;;;13.07;;
37937;SDS011;23763;48.130;11.602;2024-01-07T10:01:19;14.00;;;12.70;;
37937;SDS011;23763;48.130;11.602;2024-01-07T10:03:45;12.97;;;11.80;;
37937;SDS011;23763;48.130;11.602;2024-01-07T10:06:11;13.87;;;12.67;;
37937;SDS011;23763;48.130;11.602;2024-01-07T10:08:38;13.17;;;11.97;;
37937;SDS011;23763;48.130;11.602;2024-01-07T10:11:04;13.40;;;12.17;;
37937;SDS011;23763;48.130;11.602;2024-01-07T10:13:30;13.73;;;12.53;;
37937;SDS011;23763;48.130;11.602;2024-01-07T10:15:58;12.97;;;11.87;;
37937;SDS011;23763;48.130;11.602;2024-01-07T10:18:24;13.83;;;12.63;;
37937;SDS011;23763;48.130;11.602;2024-01-07T10:20:50;14.53;;;13.20;;
37937;SDS011;23763;48.130;11.602;2024-01-07T10:23:20;15.03;;;13.53;;
37937;SDS011;23763;48.130;11.602;2024-01-07T10:25:45;12.47;;;11.50;;
37937;SDS011;23763;48.130;11.602;2024-01-07T10:28:12;14.10;;;12.90;;
37937;SDS011;23763;48.130;11.602;2024-01-07T10:30:39;13.63;;;12.50;;
37937;SDS011;23763;48.130;11.602;2024-01-07T10:33:05;13.07;;;11.97;;
37937;SDS011;23763;48.130;11.602;2024-01-07T10:35:36;12.30;;;11.10;;
37937;SDS011;23763;48.130;11.602;2024-01-07T10:38:05;14.07;;;12.77;;
37937;SDS011;23763;48.130;11.602;2024-01-07T10:40:31;12.97;;;11.83;;
37937;SDS011;23763;48.130;11.602;2024-01-07T10:42:59;12.93;;;11.73;;
37937;SDS011;23763;48.130;11.602;2024-01-07T10:45:25;13.77;;;12.67;;
37937;SDS011;23763;48.130;11.602;2024-01-07T10:47:52;12.27;;;11.17;;
37937;SDS011;23763;48.130;11.602;2024-01-07T10:50:20;12.07;;;11.07;;
37937;SDS011;23763;48.130;11.602;2024-01-07T10:52:50;12.40;;;11.47;;
37937;SDS011;23763;48.130;11.602;2024-01-07T10:55:22;12.43;;;11.30;;
37937;SDS011;23763;48.130;11.602;2024-01-07T10:57:49;13.03;;;11.93;;
37937;SDS011;23763;48.130;11.602;2024-01-07T11:00:16;12.47;;;11.43;;
37937;SDS011;23763;48.130;11.602;2024-01-07T11:05:52;12.37;;;11.27;;
37937;SDS011;23763;48.130;11.602;2024-01-07T11:10:51;12.13;;;11.23;;
37937;SDS011;23763;48.130;11.602;2024-01-07T11:13:32;13.10;;;11.80;;
37937;SDS011;23763;48.130;11.602;2024-01-07T11:16:05;11.90;;;10.80;;
37937;SDS011;23763;48.130;11.602;2024-01-07T11:18:37;11.90;;;10.90;;
37937;SDS011;23763;48.130;11.602;2024-01-07T11:21:04;12.30;;;11.20;;
37937;SDS011;23763;48.130;11.602;2024-01-07T11:26:05;11.00;;;10.20;;
37937;SDS011;23763;48.130;11.602;2024-01-07T11:28:47;11.47;;;10.57;;
37937;SDS011;23763;48.130;11.602;2024-01-07T11:31:18;11.20;;;10.40;;
37937;SDS011;23763;48.130;11.602;2024-01-07T11:33:45;10.70;;;9.90;;
37937;SDS011;23763;48.130;11.602;2024-01-07T11:36:13;11.10;;;10.20;;
37937;SDS011;23763;48.130;11.602;2024-01-07T11:38:49;10.77;;;9.97;;
37937;SDS011;23763;48.130;11.602;2024-01-07T11:41:15;11.10;;;10.30;;
37937;SDS011;23763;48.130;11.602;2024-01-07T11:43:55;11.20;;;10.30;;
37937;SDS011;23763;48.130;11.602;2024-01-07T11:46:23;11.10;;;10.20;;
37937;SDS011;23763;48.130;11.602;2024-01-07T11:48:52;11.00;;;10.20;;
37937;SDS011;23763;48.130;11.602;2024-01-07T11:51:23;12.03;;;11.13;;
37937;SDS011;23763;48.130;11.602;2024-01-07T11:53:58;11.30;;;10.37;;
37937;SDS011;23763;48.130;11.602;2024-01-07T11:56:24;11.93;;;11.03;;
37937;SDS011;23763;48.130;11.602;2024-01-07T11:58:51;12.20;;;11.10;;
37937;SDS011;23763;48.130;11.602;2024-01-07T12:01:17;12.37;;;11.27;;
37937;SDS011;23763;48.130;11.602;2024-01-07T12:03:43;12.03;;;11.03;;
37937;SDS011;23763;48.130;11.602;2024-01-07T12:06:10;12.20;;;11.30;;
37937;SDS011;23763;48.130;11.602;2024-01-07T12:08:39;11.37;;;10.47;;
37937;SDS011;23763;48.130;11.602;2024-01-07T12:11:05;12.93;;;11.73;;
37937;SDS011;23763;48.130;11.602;2024-01-07T12:13:31;12.00;;;10.80;;
37937;SDS011;23763;48.130;11.602;2024-01-07T12:15:57;12.10;;;11.07;;
37937;SDS011;23763;48.130;11.602;2024-01-07T12:18:23;11.70;;;10.70;;
37937;SDS011;23763;48.130;11.602;2024-01-07T12:20:54;12.00;;;10.80;;
37937;SDS011;23763;48.130;11.602;2024-01-07T12:23:24;11.80;;;10.90;;
37937;SDS011;23763;48.130;11.602;2024-01-07T12:25:51;10.73;;;9.93;;
37937;SDS011;23763;48.130;11.602;2024-01-07T12:28:18;12.40;;;10.30;;
37937;SDS011;23763;48.130;11.602;2024-01-07T12:30:44;11.87;;;10.87;;
37937;SDS011;23763;48.130;11.602;2024-01-07T12:33:10;12.10;;;10.90;;
37937;SDS011;23763;48.130;11.602;2024-01-07T12:35:36;12.43;;;11.33;;
37937;SDS011;23763;48.130;11.602;2024-01-07T12:38:02;11.77;;;10.77;;
37937;SDS011;23763;48.130;11.602;2024-01-07T12:40:29;11.53;;;10.57;;
37937;SDS011;23763;48.130;11.602;2024-01-07T12:42:55;12.27;;;11.23;;
37937;SDS011;23763;48.130;11.602;2024-01-07T12:45:22;11.87;;;10.93;;
37937;SDS011;23763;48.130;11.602;2024-01-07T12:47:47;13.07;;;11.97;;
37937;SDS011;23763;48.130;11.602;2024-01-07T12:50:13;11.57;;;10.77;;
37937;SDS011;23763;48.130;11.602;2024-01-07T12:52:40;11.23;;;10.30;;
37937;SDS011;23763;48.130;11.602;2024-01-07T12:55:06;11.67;;;10.70;;
37937;SDS011;23763;48.130;11.602;2024-01-07T12:57:33;12.40;;;11.30;;
37937;SDS011;23763;48.130;11.602;2024-01-07T12:59:59;12.10;;;11.20;;
37937;SDS011;23763;48.130;11.602;2024-01-07T13:02:25;12.30;;;11.30;;
37937;SDS011;23763;48.130;11.602;2024-01-07T13:04:51;11.63;;;10.83;;
37937;SDS011;23763;48.130;11.602;2024-01-07T13:07:17;11.97;;;10.97;;
37937;SDS011;23763;48.130;11.602;2024-01-07T13:12:11;13.33;;;12.23;;
37937;SDS011;23763;48.130;11.602;2024-01-07T13:14:37;11.73;;;10.83;;
37937;SDS011;23763;48.130;11.602;2024-01-07T13:17:03;12.07;;;11.17;;
37937;SDS011;23763;48.130;11.602;2024-01-07T13:19:29;13.33;;;12.03;;
37937;SDS011;23763;48.130;11.602;2024-01-07T13:21:55;12.13;;;11.20;;
37937;SDS011;23763;48.130;11.602;2024-01-07T13:24:23;11.30;;;10.50;;
37937;SDS011;23763;48.130;11.602;2024-01-07T13:26:48;11.40;;;10.47;;
37937;SDS011;23763;48.130;11.602;2024-01-07T13:29:14;11.93;;;10.93;;
37937;SDS011;23763;48.130;11.602;2024-01-07T13:31:40;11.63;;;10.63;;
37937;SDS011;23763;48.130;11.602;2024-01-07T13:34:05;11.37;;;10.47;;
37937;SDS011;23763;48.130;11.602;2024-01-07T13:36:31;12.03;;;10.93;;
37937;SDS011;23763;48.130;11.602;2024-01-07T13:38:57;11.30;;;10.50;;
37937;SDS011;23763;48.130;11.602;2024-01-07T13:41:22;10.70;;;9.87;;
37937;SDS011;23763;48.130;11.602;2024-01-07T13:43:49;11.20;;;10.30;;
37937;SDS011;23763;48.130;11.602;2024-01-07T13:46:14;11.50;;;10.50;;
37937;SDS011;23763;48.130;11.602;2024-01-07T13:48:40;11.37;;;10.53;;
37937;SDS011;23763;48.130;11.602;2024-01-07T13:51:07;12.50;;;11.40;;
37937;SDS011;23763;48.130;11.602;2024-01-07T13:53:34;11.07;;;10.30;;
37937;SDS011;23763;48.130;11.602;2024-01-07T13:56:00;11.93;;;10.93;;
37937;SDS011;23763;48.130;11.602;2024-01-07T13:58:25;12.03;;;11.03;;
37937;SDS011;23763;48.130;11.602;2024-01-07T14:00:51;11.57;;;10.67;;
37937;SDS011;23763;48.130;11.602;2024-01-07T14:03:17;11.60;;;10.70;;
37937;SDS011;23763;48.130;11.602;2024-01-07T14:05:43;12.27;;;11.20;;
37937;SDS011;23763;48.130;11.602;2024-01-07T14:08:09;12.00;;;11.00;;
37937;SDS011;23763;48.130;11.602;2024-01-07T14:10:35;11.87;;;10.97;;
37937;SDS011;23763;48.130;11.602;2024-01-07T14:13:01;11.10;;;10.27;;
37937;SDS011;23763;48.130;11.602;2024-01-07T14:15:27;11.83;;;10.93;;
37937;SDS011;23763;48.130;11.602;2024-01-07T14:17:54;11.97;;;11.07;;
37937;SDS011;23763;48.130;11.602;2024-01-07T14:20:19;14.07;;;12.77;;
37937;SDS011;23763;48.130;11.602;2024-01-07T14:22:46;13.17;;;11.97;;